South Lee, Massachusetts
Current Conditions -  °F | °C
As of 9:54 PM on Friday 21 Nov 2014 (Local Time) from KPSF Reporting Station
Scattered Clouds Scattered Clouds  
Wind Chill: 18°   Ceiling: Unl
Heat Index: 18°   Visibility: 10mi
Dew Point: 11°   Wind: 0mph
Humidity: 74%   Direction: NA
Pressure: 30.35"   Gusts: NA
Location:  42.28°N, 73.28°W
Report Text: KPSF 220254Z AUTO 00000KT 10SM SCT038 M08/M12 A3035 RMK AO2 SLP299 T10781117 50002
Loading
Personal Weather Stations






























Interactive Weather Map New forecast layout! Learn more

10-Day Weather Forecast

Advertisements
Track Severe Weather on mobile